createdAt,value
2022-12-25T00:01:38.877Z,6.94
2022-12-25T00:04:05.484Z,6.97
2022-12-25T00:06:31.931Z,6.97
2022-12-25T00:08:58.368Z,7.05
2022-12-25T00:11:24.730Z,6.99
2022-12-25T00:13:51.255Z,6.97
2022-12-25T00:16:20.622Z,7.01
2022-12-25T00:18:47.913Z,7.03
2022-12-25T00:21:15.286Z,7.02
2022-12-25T00:23:41.994Z,7.00
2022-12-25T00:26:11.311Z,7.09
2022-12-25T00:28:37.788Z,6.97
2022-12-25T00:31:08.965Z,6.84
2022-12-25T00:33:40.576Z,6.78
2022-12-25T00:36:08.047Z,6.74
2022-12-25T00:38:36.180Z,6.67
2022-12-25T00:41:11.749Z,6.73
2022-12-25T00:43:38.553Z,6.67
2022-12-25T00:46:06.652Z,6.66
2022-12-25T00:48:34.651Z,6.65
2022-12-25T00:51:04.660Z,6.66
2022-12-25T00:53:31.499Z,6.65
2022-12-25T00:56:03.742Z,6.62
2022-12-25T00:58:32.225Z,6.54
2022-12-25T01:00:58.926Z,6.51
2022-12-25T01:03:26.371Z,6.50
2022-12-25T01:05:58.906Z,6.43
2022-12-25T01:08:26.136Z,6.32
2022-12-25T01:11:18.822Z,6.37
2022-12-25T01:13:45.178Z,6.21
2022-12-25T01:16:11.832Z,6.13
2022-12-25T01:18:38.799Z,6.10
2022-12-25T01:21:09.862Z,6.07
2022-12-25T01:23:36.729Z,6.04
2022-12-25T01:26:07.926Z,5.99
2022-12-25T01:28:35.562Z,6.07
2022-12-25T01:31:02.621Z,6.17
2022-12-25T01:33:29.079Z,6.14
2022-12-25T01:35:55.777Z,6.14
2022-12-25T01:38:22.180Z,6.13
2022-12-25T01:40:48.611Z,6.09
2022-12-25T01:43:22.880Z,6.06
2022-12-25T01:45:52.462Z,6.07
2022-12-25T01:48:25.810Z,6.07
2022-12-25T01:51:01.689Z,5.95
2022-12-25T01:53:27.956Z,5.93
2022-12-25T01:55:58.979Z,5.90
2022-12-25T01:58:25.790Z,5.90
2022-12-25T02:00:52.276Z,5.86
2022-12-25T02:03:20.740Z,5.85
2022-12-25T02:05:47.991Z,5.87
2022-12-25T02:08:18.317Z,5.79
2022-12-25T02:10:44.964Z,5.75
2022-12-25T02:13:13.999Z,5.71
2022-12-25T02:15:50.477Z,5.66
2022-12-25T02:18:16.963Z,5.56
2022-12-25T02:21:04.601Z,5.50
2022-12-25T02:23:57.772Z,5.39
2022-12-25T02:26:50.622Z,5.30
2022-12-25T02:29:33.777Z,5.24
2022-12-25T02:32:13.017Z,5.30
2022-12-25T02:34:51.106Z,5.21
2022-12-25T02:37:29.223Z,5.08
2022-12-25T02:40:01.098Z,4.99
2022-12-25T02:43:07.678Z,4.97
2022-12-25T02:46:10.614Z,5.01
2022-12-25T02:49:00.192Z,4.92
2022-12-25T02:51:47.875Z,5.27
2022-12-25T02:54:37.961Z,5.01
2022-12-25T02:57:27.196Z,4.86
2022-12-25T03:00:14.598Z,4.79
2022-12-25T03:03:02.114Z,4.70
2022-12-25T03:05:50.197Z,4.65
2022-12-25T03:08:21.840Z,4.62
2022-12-25T03:11:21.574Z,4.63
2022-12-25T03:13:52.963Z,4.64
2022-12-25T03:16:39.331Z,4.59
2022-12-25T03:19:25.804Z,4.52
2022-12-25T03:22:13.264Z,4.51
2022-12-25T03:24:59.631Z,4.50
2022-12-25T03:27:29.131Z,4.42
2022-12-25T03:30:14.282Z,4.41
2022-12-25T03:32:58.987Z,4.41
2022-12-25T03:36:03.263Z,4.41
2022-12-25T03:38:51.606Z,4.37
2022-12-25T03:41:36.367Z,4.39
2022-12-25T03:44:45.922Z,4.38
2022-12-25T03:47:46.349Z,4.37
2022-12-25T03:50:40.131Z,4.41
2022-12-25T03:53:40.599Z,4.38
2022-12-25T03:56:27.055Z,4.34
2022-12-25T03:59:21.088Z,4.26
2022-12-25T04:02:09.396Z,4.24
2022-12-25T04:04:54.547Z,4.27
2022-12-25T04:07:39.619Z,4.29
2022-12-25T04:10:25.213Z,4.24
2022-12-25T04:13:10.248Z,4.24
2022-12-25T04:15:55.158Z,4.17
2022-12-25T04:18:40.569Z,4.07
2022-12-25T04:21:26.109Z,4.04
2022-12-25T04:24:10.888Z,4.04
2022-12-25T04:26:55.834Z,4.02
2022-12-25T04:29:40.555Z,3.94
2022-12-25T04:32:25.302Z,3.94
2022-12-25T04:35:10.542Z,3.92
2022-12-25T04:37:36.953Z,3.89
2022-12-25T04:40:03.865Z,3.81
2022-12-25T04:42:30.216Z,3.72
2022-12-25T04:44:56.656Z,3.71
2022-12-25T04:47:22.996Z,3.75
2022-12-25T04:49:50.469Z,3.68
2022-12-25T04:52:17.057Z,3.59
2022-12-25T04:54:43.411Z,3.63
2022-12-25T04:57:09.819Z,3.68
2022-12-25T04:59:36.178Z,3.53
2022-12-25T05:02:02.698Z,3.59
2022-12-25T05:04:29.302Z,3.67
2022-12-25T05:06:55.867Z,3.54
2022-12-25T05:09:22.390Z,3.51
2022-12-25T05:11:48.734Z,3.50
2022-12-25T05:14:15.337Z,3.45
2022-12-25T05:16:42.001Z,3.43
2022-12-25T05:19:09.309Z,3.49
2022-12-25T05:21:35.798Z,3.45
2022-12-25T05:24:02.402Z,3.43
2022-12-25T05:26:28.795Z,3.44
2022-12-25T05:28:55.502Z,3.41
2022-12-25T05:31:22.447Z,3.37
2022-12-25T05:33:50.678Z,3.34
2022-12-25T05:36:17.564Z,3.34
2022-12-25T05:38:44.116Z,3.35
2022-12-25T05:41:10.455Z,3.32
2022-12-25T05:43:36.829Z,3.31
2022-12-25T05:46:08.096Z,3.24
2022-12-25T05:48:37.211Z,3.24
2022-12-25T05:51:12.666Z,3.20
2022-12-25T05:53:39.868Z,3.23
2022-12-25T05:56:07.418Z,3.22
2022-12-25T05:58:35.554Z,3.25
2022-12-25T06:01:02.766Z,3.12
2022-12-25T06:03:29.431Z,3.07
2022-12-25T06:05:55.923Z,3.08
2022-12-25T06:08:22.319Z,3.02
2022-12-25T06:10:48.743Z,3.02
2022-12-25T06:13:15.231Z,3.01
2022-12-25T06:15:41.977Z,2.99
2022-12-25T06:18:08.783Z,2.97
2022-12-25T06:20:35.795Z,2.99
2022-12-25T06:23:02.238Z,2.96
2022-12-25T06:25:28.759Z,2.95
2022-12-25T06:27:55.130Z,2.92
2022-12-25T06:30:21.534Z,2.93
2022-12-25T06:32:47.906Z,3.00
2022-12-25T06:35:14.591Z,2.95
2022-12-25T06:37:41.110Z,2.89
2022-12-25T06:40:08.094Z,2.89
2022-12-25T06:42:34.891Z,2.86
2022-12-25T06:45:01.232Z,2.81
2022-12-25T06:47:27.600Z,2.87
2022-12-25T06:49:54.021Z,2.85
2022-12-25T06:52:20.362Z,2.83
2022-12-25T06:54:47.181Z,2.91
2022-12-25T06:57:13.657Z,2.84
2022-12-25T06:59:40.080Z,2.86
2022-12-25T07:02:17.089Z,2.88
2022-12-25T07:04:43.677Z,2.88
2022-12-25T07:07:10.368Z,2.85
2022-12-25T07:09:39.172Z,2.79
2022-12-25T07:12:17.973Z,2.75
2022-12-25T07:14:48.622Z,2.75
2022-12-25T07:17:16.181Z,2.79
2022-12-25T07:19:45.124Z,2.83
2022-12-25T07:22:12.164Z,2.81
2022-12-25T07:24:38.585Z,2.87
2022-12-25T07:27:04.950Z,2.87
2022-12-25T07:29:31.360Z,2.86
2022-12-25T07:31:58.212Z,2.85
2022-12-25T07:34:24.673Z,2.87
2022-12-25T07:36:51.024Z,2.90
2022-12-25T07:39:17.803Z,2.91
2022-12-25T07:41:44.443Z,2.93
2022-12-25T07:44:11.030Z,2.91
2022-12-25T07:46:37.437Z,2.97
2022-12-25T07:49:03.899Z,3.03
2022-12-25T07:51:30.469Z,3.10
2022-12-25T07:53:57.152Z,3.09
2022-12-25T07:56:23.579Z,3.10
2022-12-25T07:58:50.216Z,3.07
2022-12-25T08:01:21.158Z,3.09
2022-12-25T08:03:56.038Z,3.06
2022-12-25T08:06:24.898Z,3.16
2022-12-25T08:08:51.301Z,3.14
2022-12-25T08:11:17.935Z,3.18
2022-12-25T08:13:44.379Z,3.18
2022-12-25T08:16:11.144Z,3.26
2022-12-25T08:18:39.085Z,3.17
2022-12-25T08:21:08.377Z,3.18
2022-12-25T08:23:37.963Z,3.16
2022-12-25T08:26:05.987Z,3.28
2022-12-25T08:28:32.988Z,3.24
2022-12-25T08:30:59.379Z,3.21
2022-12-25T08:33:25.803Z,3.25
2022-12-25T08:35:52.194Z,3.23
2022-12-25T08:38:18.625Z,3.34
2022-12-25T08:40:45.225Z,3.37
2022-12-25T08:43:11.744Z,3.39
2022-12-25T08:45:38.160Z,3.44
2022-12-25T08:48:04.576Z,3.55
2022-12-25T08:50:31.172Z,3.57
2022-12-25T08:52:57.542Z,3.56
2022-12-25T08:55:23.968Z,3.60
2022-12-25T08:57:53.106Z,3.60
2022-12-25T09:00:19.844Z,3.63
2022-12-25T09:02:46.387Z,3.64
2022-12-25T09:05:12.828Z,3.68
2022-12-25T09:07:39.220Z,3.70
2022-12-25T09:10:06.322Z,3.78
2022-12-25T09:12:32.699Z,3.77
2022-12-25T09:14:59.378Z,3.86
2022-12-25T09:17:26.052Z,3.81
2022-12-25T09:19:52.460Z,3.86
2022-12-25T09:22:19.309Z,3.91
2022-12-25T09:24:45.671Z,3.87
2022-12-25T09:27:12.283Z,3.90
2022-12-25T09:29:39.113Z,4.01
2022-12-25T09:32:06.869Z,3.99
2022-12-25T09:34:33.256Z,3.99
2022-12-25T09:36:59.990Z,3.98
2022-12-25T09:39:26.764Z,3.98
2022-12-25T09:42:01.641Z,4.03
2022-12-25T09:44:36.859Z,4.00
2022-12-25T09:47:08.235Z,4.03
2022-12-25T09:49:57.577Z,4.05
2022-12-25T09:52:33.073Z,4.13
2022-12-25T09:55:12.466Z,4.07
2022-12-25T09:57:42.992Z,4.12
2022-12-25T10:00:18.215Z,4.09
2022-12-25T10:03:13.472Z,4.23
2022-12-25T10:06:04.618Z,4.27
2022-12-25T10:08:49.635Z,4.24
2022-12-25T10:11:38.509Z,4.32
2022-12-25T10:14:07.586Z,4.56
2022-12-25T10:17:15.677Z,4.46
2022-12-25T10:20:12.360Z,4.51
2022-12-25T10:22:44.062Z,4.55
2022-12-25T10:25:19.769Z,4.60
2022-12-25T10:27:51.657Z,4.67
2022-12-25T10:30:23.830Z,4.63
2022-12-25T10:32:51.584Z,4.66
2022-12-25T10:35:21.187Z,4.68
2022-12-25T10:37:59.531Z,4.71
2022-12-25T10:40:42.640Z,4.75
2022-12-25T10:43:15.404Z,4.82
2022-12-25T10:45:49.812Z,4.86
2022-12-25T10:48:34.514Z,4.93
2022-12-25T10:51:01.022Z,4.95
2022-12-25T10:53:29.043Z,5.11
2022-12-25T10:56:00.339Z,5.10
2022-12-25T10:58:27.949Z,5.14
2022-12-25T11:01:14.008Z,5.15
2022-12-25T11:03:45.715Z,5.21
2022-12-25T11:06:32.184Z,5.35
2022-12-25T11:09:01.472Z,5.42
2022-12-25T11:11:29.399Z,5.51
2022-12-25T11:14:00.972Z,5.54
2022-12-25T11:16:35.238Z,5.62
2022-12-25T11:19:02.492Z,5.68
2022-12-25T11:21:31.494Z,5.85
2022-12-25T11:24:03.706Z,5.84
2022-12-25T11:26:36.518Z,5.86
2022-12-25T11:29:03.692Z,6.01
2022-12-25T11:31:37.701Z,6.14
2022-12-25T11:34:18.483Z,6.05
2022-12-25T11:36:48.412Z,6.09
2022-12-25T11:39:36.206Z,6.13
2022-12-25T11:42:29.135Z,6.16
2022-12-25T11:45:10.783Z,6.18
2022-12-25T11:47:51.625Z,6.21
2022-12-25T11:50:35.384Z,6.25
2022-12-25T11:53:41.149Z,6.30
2022-12-25T11:56:18.751Z,6.33
2022-12-25T11:58:48.936Z,6.34
2022-12-25T12:01:32.172Z,6.38
2022-12-25T12:04:01.571Z,6.41
2022-12-25T12:06:38.309Z,6.46
2022-12-25T12:09:23.612Z,6.42
2022-12-25T12:12:04.232Z,6.45
2022-12-25T12:14:53.594Z,6.48
2022-12-25T12:17:20.181Z,6.48
2022-12-25T12:19:46.971Z,6.53
2022-12-25T12:22:18.662Z,6.56
2022-12-25T12:24:46.572Z,6.67
2022-12-25T12:27:25.259Z,6.70
2022-12-25T12:29:58.360Z,6.75
2022-12-25T12:32:44.449Z,6.86
2022-12-25T12:35:23.963Z,6.90
2022-12-25T12:37:55.529Z,7.05
2022-12-25T12:40:41.882Z,7.21
2022-12-25T12:43:31.861Z,7.34
2022-12-25T12:46:04.155Z,7.45
2022-12-25T12:48:38.301Z,7.57
2022-12-25T12:51:07.903Z,7.63
2022-12-25T12:53:34.335Z,7.73
2022-12-25T12:56:19.956Z,7.78
2022-12-25T12:58:51.191Z,7.74
2022-12-25T13:01:26.599Z,7.75
2022-12-25T13:04:17.509Z,7.74
2022-12-25T13:06:49.247Z,7.69
2022-12-25T13:09:38.236Z,7.82
2022-12-25T13:12:08.126Z,7.73
2022-12-25T13:14:35.473Z,7.73
2022-12-25T13:17:01.931Z,7.74
2022-12-25T13:19:29.067Z,7.74
2022-12-25T13:21:58.465Z,7.69
2022-12-25T13:24:27.283Z,7.77
2022-12-25T13:26:53.882Z,7.73
2022-12-25T13:29:33.013Z,7.62
2022-12-25T13:32:01.794Z,7.59
2022-12-25T13:34:41.415Z,7.59
2022-12-25T13:37:10.583Z,7.55
2022-12-25T13:39:46.142Z,7.52
2022-12-25T13:42:16.745Z,7.50
2022-12-25T13:44:47.329Z,7.48
2022-12-25T13:47:23.293Z,7.53
2022-12-25T13:49:51.399Z,7.48
2022-12-25T13:52:33.272Z,7.47
2022-12-25T13:55:02.441Z,7.44
2022-12-25T13:57:38.566Z,7.38
2022-12-25T14:00:07.214Z,7.40
2022-12-25T14:02:38.085Z,7.35
2022-12-25T14:05:37.946Z,7.29
2022-12-25T14:08:23.006Z,7.24
2022-12-25T14:10:51.692Z,7.22
2022-12-25T14:13:20.946Z,7.22
2022-12-25T14:15:48.529Z,7.28
2022-12-25T14:18:17.359Z,7.25
2022-12-25T14:21:12.446Z,7.25
2022-12-25T14:23:45.493Z,7.21
2022-12-25T14:26:21.244Z,7.26
2022-12-25T14:28:49.000Z,7.31
2022-12-25T14:31:15.945Z,7.32
2022-12-25T14:33:42.829Z,7.26
2022-12-25T14:36:13.135Z,7.25
2022-12-25T14:38:42.457Z,7.25
2022-12-25T14:41:33.588Z,7.18
2022-12-25T14:44:02.256Z,7.17
2022-12-25T14:46:31.452Z,7.16
2022-12-25T14:49:05.527Z,7.10
2022-12-25T14:51:33.338Z,7.10
2022-12-25T14:54:02.919Z,7.07
2022-12-25T14:56:37.952Z,7.04
2022-12-25T14:59:05.031Z,7.02
2022-12-25T15:01:38.800Z,6.99
2022-12-25T15:04:11.431Z,6.98
2022-12-25T15:06:53.050Z,6.98
2022-12-25T15:09:19.610Z,7.00
2022-12-25T15:11:50.180Z,7.01
2022-12-25T15:14:16.820Z,7.04
2022-12-25T15:16:49.457Z,7.01
2022-12-25T15:19:25.236Z,7.00
2022-12-25T15:21:53.069Z,6.96
2022-12-25T15:24:19.570Z,7.07
2022-12-25T15:26:46.159Z,7.02
2022-12-25T15:29:12.513Z,7.03
2022-12-25T15:31:39.661Z,7.01
2022-12-25T15:34:15.375Z,7.00
2022-12-25T15:36:41.736Z,7.07
2022-12-25T15:39:08.175Z,7.03
2022-12-25T15:41:55.280Z,7.01
2022-12-25T15:44:21.992Z,6.98
2022-12-25T15:46:48.411Z,7.00
2022-12-25T15:49:15.672Z,7.01
2022-12-25T15:51:43.313Z,7.02
2022-12-25T15:54:10.586Z,7.02
2022-12-25T15:56:58.365Z,7.03
2022-12-25T15:59:24.786Z,6.99
2022-12-25T16:01:56.782Z,7.01
2022-12-25T16:04:25.075Z,6.99
2022-12-25T16:06:52.621Z,7.04
2022-12-25T16:09:22.603Z,7.01
2022-12-25T16:11:49.855Z,7.03
2022-12-25T16:14:16.302Z,7.04
2022-12-25T16:16:42.716Z,7.08
2022-12-25T16:19:09.284Z,7.03
2022-12-25T16:21:46.223Z,7.01
2022-12-25T16:24:13.970Z,7.01
2022-12-25T16:26:40.508Z,7.03
2022-12-25T16:29:07.799Z,7.09
2022-12-25T16:31:35.711Z,7.07
2022-12-25T16:34:02.472Z,7.04
2022-12-25T16:36:28.893Z,7.09
2022-12-25T16:38:55.320Z,7.08
2022-12-25T16:41:21.785Z,7.08
2022-12-25T16:43:48.518Z,7.12
2022-12-25T16:46:20.611Z,7.11
2022-12-25T16:48:47.045Z,7.16
2022-12-25T16:51:16.102Z,7.17
2022-12-25T16:53:43.349Z,7.18
2022-12-25T16:56:16.104Z,7.20
2022-12-25T16:58:44.194Z,7.22
2022-12-25T17:01:12.161Z,7.24
2022-12-25T17:03:38.999Z,7.38
2022-12-25T17:06:14.197Z,7.36
2022-12-25T17:08:41.535Z,7.41
2022-12-25T17:11:08.252Z,7.38
2022-12-25T17:13:34.932Z,7.39
2022-12-25T17:16:10.737Z,7.38
2022-12-25T17:18:37.080Z,7.39
2022-12-25T17:21:03.636Z,7.36
2022-12-25T17:23:29.970Z,7.37
2022-12-25T17:26:00.837Z,7.34
2022-12-25T17:28:27.211Z,7.34
2022-12-25T17:30:53.606Z,7.33
2022-12-25T17:33:20.214Z,7.33
2022-12-25T17:35:46.563Z,7.32
2022-12-25T17:38:12.926Z,7.34
2022-12-25T17:40:39.316Z,7.42
2022-12-25T17:43:05.667Z,7.44
2022-12-25T17:45:32.084Z,7.45
2022-12-25T17:47:58.446Z,7.49
2022-12-25T17:50:25.846Z,7.55
2022-12-25T17:52:52.897Z,7.55
2022-12-25T17:55:19.277Z,7.62
2022-12-25T17:57:45.673Z,7.60
2022-12-25T18:00:13.334Z,7.63
2022-12-25T18:02:40.103Z,7.62
2022-12-25T18:05:07.338Z,7.64
2022-12-25T18:07:33.807Z,7.63
2022-12-25T18:10:00.178Z,7.61
2022-12-25T18:12:26.520Z,7.64
2022-12-25T18:14:52.880Z,7.67
2022-12-25T18:17:19.252Z,7.68
2022-12-25T18:19:45.591Z,7.70
2022-12-25T18:22:12.028Z,7.72
2022-12-25T18:24:38.644Z,7.74
2022-12-25T18:27:05.002Z,7.66
2022-12-25T18:29:31.516Z,7.71
2022-12-25T18:31:58.021Z,7.71
2022-12-25T18:34:24.643Z,7.68
2022-12-25T18:36:51.294Z,7.72
2022-12-25T18:39:17.762Z,7.70
2022-12-25T18:42:02.960Z,7.67
2022-12-25T18:44:30.433Z,7.65
2022-12-25T18:46:56.890Z,7.63
2022-12-25T18:49:23.256Z,7.61
2022-12-25T18:51:49.694Z,7.61
2022-12-25T18:54:16.045Z,7.62
2022-12-25T18:56:42.477Z,7.66
2022-12-25T18:59:08.895Z,7.63
2022-12-25T19:01:35.527Z,7.60
2022-12-25T19:04:05.610Z,7.60
2022-12-25T19:06:33.286Z,7.63
2022-12-25T19:08:59.801Z,7.63
2022-12-25T19:11:26.259Z,7.66
2022-12-25T19:13:52.624Z,7.66
2022-12-25T19:16:19.024Z,7.69
2022-12-25T19:18:45.593Z,7.69
2022-12-25T19:21:12.045Z,7.70
2022-12-25T19:23:38.744Z,7.71
2022-12-25T19:26:06.562Z,7.77
2022-12-25T19:28:33.042Z,7.82
2022-12-25T19:31:00.576Z,7.84
2022-12-25T19:33:27.167Z,8.05
2022-12-25T19:35:53.620Z,8.01
2022-12-25T19:38:20.113Z,8.06
2022-12-25T19:41:00.271Z,8.04
2022-12-25T19:43:32.240Z,8.20
2022-12-25T19:45:59.217Z,8.15
2022-12-25T19:48:25.912Z,8.15
2022-12-25T19:50:52.786Z,8.43
2022-12-25T19:53:21.385Z,8.30
2022-12-25T19:55:47.747Z,8.26
2022-12-25T19:58:14.449Z,8.35
2022-12-25T20:00:41.752Z,8.30
2022-12-25T20:03:09.373Z,8.36
2022-12-25T20:05:36.190Z,8.40
2022-12-25T20:08:02.655Z,8.38
2022-12-25T20:10:29.053Z,8.42
2022-12-25T20:12:55.772Z,8.39
2022-12-25T20:15:22.123Z,8.34
2022-12-25T20:17:48.643Z,8.37
2022-12-25T20:20:15.066Z,8.33
2022-12-25T20:22:41.827Z,8.34
2022-12-25T20:25:10.726Z,8.43
2022-12-25T20:27:37.154Z,8.38
2022-12-25T20:30:04.058Z,8.40
2022-12-25T20:32:30.419Z,8.39
2022-12-25T20:34:56.841Z,8.38
2022-12-25T20:37:23.230Z,8.39
2022-12-25T20:39:49.595Z,8.40
2022-12-25T20:42:15.942Z,8.36
2022-12-25T20:44:42.300Z,8.35
2022-12-25T20:47:08.855Z,8.40
2022-12-25T20:49:35.401Z,8.40
2022-12-25T20:52:05.604Z,8.39
2022-12-25T20:54:32.371Z,8.38
2022-12-25T20:56:58.797Z,8.36
2022-12-25T20:59:25.228Z,8.39
2022-12-25T21:01:51.853Z,8.39
2022-12-25T21:04:18.603Z,8.40
2022-12-25T21:06:44.995Z,8.46
2022-12-25T21:09:11.610Z,8.49
2022-12-25T21:11:38.100Z,8.43
2022-12-25T21:14:04.545Z,8.49
2022-12-25T21:16:32.615Z,8.46
2022-12-25T21:18:59.256Z,8.42
2022-12-25T21:21:25.766Z,8.40
2022-12-25T21:23:55.269Z,8.46
2022-12-25T21:26:24.122Z,8.45
2022-12-25T21:28:52.753Z,8.50
2022-12-25T21:31:19.551Z,8.45
2022-12-25T21:33:52.023Z,8.46
2022-12-25T21:36:27.180Z,8.52
2022-12-25T21:38:59.267Z,8.48
2022-12-25T21:41:27.473Z,8.62
2022-12-25T21:43:54.814Z,8.59
2022-12-25T21:46:21.920Z,8.52
2022-12-25T21:48:48.721Z,8.57
2022-12-25T21:51:40.299Z,8.54
2022-12-25T21:54:07.778Z,8.54
2022-12-25T21:56:43.081Z,8.52
2022-12-25T21:59:13.555Z,8.64
2022-12-25T22:01:40.104Z,8.58
2022-12-25T22:04:08.894Z,8.54
2022-12-25T22:06:54.314Z,8.53
2022-12-25T22:09:21.154Z,8.56
2022-12-25T22:12:06.372Z,8.57
2022-12-25T22:14:54.940Z,8.57
2022-12-25T22:17:42.363Z,8.47
2022-12-25T22:20:11.757Z,8.52
2022-12-25T22:22:38.135Z,8.45
2022-12-25T22:25:06.257Z,8.41
2022-12-25T22:27:34.847Z,8.43
2022-12-25T22:30:02.026Z,8.47
2022-12-25T22:32:28.502Z,8.42
2022-12-25T22:34:54.981Z,8.42
2022-12-25T22:37:22.995Z,8.40
2022-12-25T22:39:49.632Z,8.40
2022-12-25T22:42:16.373Z,8.48
2022-12-25T22:44:42.848Z,8.50
2022-12-25T22:47:09.700Z,8.56
2022-12-25T22:49:36.061Z,8.48
2022-12-25T22:52:02.838Z,8.49
2022-12-25T22:54:31.620Z,8.48
2022-12-25T22:57:01.598Z,8.57
2022-12-25T22:59:27.983Z,8.61
2022-12-25T23:01:54.706Z,8.62
2022-12-25T23:04:21.642Z,8.62
2022-12-25T23:06:48.068Z,8.58
2022-12-25T23:09:22.268Z,8.54
2022-12-25T23:11:50.980Z,8.56
2022-12-25T23:14:35.682Z,8.55
2022-12-25T23:17:02.036Z,8.52
2022-12-25T23:19:54.331Z,8.49
2022-12-25T23:22:39.065Z,8.48
2022-12-25T23:25:32.314Z,8.44
2022-12-25T23:27:58.880Z,8.43
2022-12-25T23:30:25.240Z,8.47
2022-12-25T23:32:51.735Z,8.50
2022-12-25T23:35:18.103Z,8.43
2022-12-25T23:37:45.000Z,8.41
2022-12-25T23:40:11.713Z,8.40
2022-12-25T23:42:38.094Z,8.37
2022-12-25T23:45:04.864Z,8.34
2022-12-25T23:47:31.416Z,8.33
2022-12-25T23:49:58.164Z,8.31
2022-12-25T23:52:24.612Z,8.31
2022-12-25T23:54:51.057Z,8.30
2022-12-25T23:57:17.430Z,8.29
2022-12-25T23:59:43.835Z,8.31
